sensor_id;sensor_type;location;lat;lon;timestamp;pressure;altitude;pressure_sealevel;temperature;humidity
2401;BME280;1211;43.200;27.914;2023-04-23T00:01:03;101259.16;;;12.83;100.00
2401;BME280;1211;43.200;27.914;2023-04-23T00:03:30;101267.16;;;12.76;100.00
2401;BME280;1211;43.200;27.914;2023-04-23T00:05:58;101271.53;;;12.77;100.00
2401;BME280;1211;43.200;27.914;2023-04-23T00:08:25;101268.28;;;12.84;100.00
2401;BME280;1211;43.200;27.914;2023-04-23T00:10:54;101261.25;;;12.86;100.00
2401;BME280;1211;43.200;27.914;2023-04-23T00:13:20;101269.78;;;12.64;100.00
2401;BME280;1211;43.200;27.914;2023-04-23T00:15:48;101267.00;;;12.64;100.00
2401;BME280;1211;43.200;27.914;2023-04-23T00:18:14;101262.75;;;12.75;100.00
2401;BME280;1211;43.200;27.914;2023-04-23T00:20:41;101262.44;;;12.68;100.00
2401;BME280;1211;43.200;27.914;2023-04-23T00:23:08;101266.06;;;12.43;100.00
2401;BME280;1211;43.200;27.914;2023-04-23T00:25:34;101260.69;;;12.55;100.00
2401;BME280;1211;43.200;27.914;2023-04-23T00:28:03;101254.34;;;12.63;100.00
2401;BME280;1211;43.200;27.914;2023-04-23T00:30:29;101254.66;;;12.70;100.00
2401;BME280;1211;43.200;27.914;2023-04-23T00:32:56;101254.59;;;12.87;100.00
2401;BME280;1211;43.200;27.914;2023-04-23T00:35:23;101259.03;;;12.71;100.00
2401;BME280;1211;43.200;27.914;2023-04-23T00:37:49;101266.66;;;12.74;100.00
2401;BME280;1211;43.200;27.914;2023-04-23T00:40:16;101257.22;;;12.84;100.00
2401;BME280;1211;43.200;27.914;2023-04-23T00:42:44;101259.03;;;12.71;100.00
2401;BME280;1211;43.200;27.914;2023-04-23T00:45:14;101255.47;;;12.70;100.00
2401;BME280;1211;43.200;27.914;2023-04-23T00:47:42;101253.47;;;12.88;100.00
2401;BME280;1211;43.200;27.914;2023-04-23T00:50:09;101251.19;;;12.82;100.00
2401;BME280;1211;43.200;27.914;2023-04-23T00:52:37;101259.34;;;12.69;100.00
2401;BME280;1211;43.200;27.914;2023-04-23T00:55:05;101259.22;;;12.66;100.00
2401;BME280;1211;43.200;27.914;2023-04-23T00:57:32;101246.34;;;12.70;100.00
2401;BME280;1211;43.200;27.914;2023-04-23T00:59:59;101254.81;;;12.56;100.00
2401;BME280;1211;43.200;27.914;2023-04-23T01:02:27;101257.13;;;12.46;100.00
2401;BME280;1211;43.200;27.914;2023-04-23T01:04:54;101258.44;;;12.48;100.00
2401;BME280;1211;43.200;27.914;2023-04-23T01:07:21;101261.16;;;12.57;100.00
2401;BME280;1211;43.200;27.914;2023-04-23T01:09:48;101256.97;;;12.16;100.00
2401;BME280;1211;43.200;27.914;2023-04-23T01:12:15;101255.34;;;12.32;100.00
2401;BME280;1211;43.200;27.914;2023-04-23T01:14:42;101262.50;;;12.42;100.00
2401;BME280;1211;43.200;27.914;2023-04-23T01:17:09;101258.25;;;12.45;100.00
2401;BME280;1211;43.200;27.914;2023-04-23T01:19:37;101255.03;;;12.43;100.00
2401;BME280;1211;43.200;27.914;2023-04-23T01:22:08;101262.66;;;12.28;100.00
2401;BME280;1211;43.200;27.914;2023-04-23T01:24:35;101255.69;;;12.22;100.00
2401;BME280;1211;43.200;27.914;2023-04-23T01:27:02;101243.81;;;12.22;100.00
2401;BME280;1211;43.200;27.914;2023-04-23T01:29:28;101253.59;;;12.02;100.00
2401;BME280;1211;43.200;27.914;2023-04-23T01:31:56;101256.47;;;12.40;100.00
2401;BME280;1211;43.200;27.914;2023-04-23T01:34:22;101257.28;;;12.41;100.00
2401;BME280;1211;43.200;27.914;2023-04-23T01:36:49;101266.75;;;12.31;100.00
2401;BME280;1211;43.200;27.914;2023-04-23T01:39:17;101263.50;;;12.20;100.00
2401;BME280;1211;43.200;27.914;2023-04-23T01:41:45;101261.19;;;12.39;100.00
2401;BME280;1211;43.200;27.914;2023-04-23T01:44:12;101261.88;;;12.19;100.00
2401;BME280;1211;43.200;27.914;2023-04-23T01:46:39;101258.13;;;12.15;100.00
2401;BME280;1211;43.200;27.914;2023-04-23T01:49:06;101262.84;;;12.23;100.00
2401;BME280;1211;43.200;27.914;2023-04-23T01:51:33;101258.63;;;12.17;100.00
2401;BME280;1211;43.200;27.914;2023-04-23T01:54:00;101262.34;;;12.13;100.00
2401;BME280;1211;43.200;27.914;2023-04-23T01:56:28;101257.31;;;12.06;100.00
2401;BME280;1211;43.200;27.914;2023-04-23T01:58:57;101269.03;;;12.20;100.00
2401;BME280;1211;43.200;27.914;2023-04-23T02:01:24;101268.69;;;12.22;100.00
2401;BME280;1211;43.200;27.914;2023-04-23T02:03:50;101267.72;;;12.26;100.00
2401;BME280;1211;43.200;27.914;2023-04-23T02:06:17;101276.81;;;12.35;100.00
2401;BME280;1211;43.200;27.914;2023-04-23T02:08:44;101275.66;;;12.11;100.00
2401;BME280;1211;43.200;27.914;2023-04-23T02:11:10;101274.38;;;12.25;100.00
2401;BME280;1211;43.200;27.914;2023-04-23T02:13:38;101275.84;;;11.97;100.00
2401;BME280;1211;43.200;27.914;2023-04-23T02:16:05;101266.41;;;12.15;100.00
2401;BME280;1211;43.200;27.914;2023-04-23T02:18:32;101275.81;;;12.06;100.00
2401;BME280;1211;43.200;27.914;2023-04-23T02:20:59;101277.28;;;12.12;100.00
2401;BME280;1211;43.200;27.914;2023-04-23T02:23:26;101273.41;;;12.13;100.00
2401;BME280;1211;43.200;27.914;2023-04-23T02:25:52;101278.25;;;12.33;100.00
2401;BME280;1211;43.200;27.914;2023-04-23T02:28:19;101272.28;;;12.14;100.00
2401;BME280;1211;43.200;27.914;2023-04-23T02:30:47;101277.44;;;11.98;100.00
2401;BME280;1211;43.200;27.914;2023-04-23T02:33:14;101277.13;;;12.25;100.00
2401;BME280;1211;43.200;27.914;2023-04-23T02:35:40;101272.06;;;11.93;100.00
2401;BME280;1211;43.200;27.914;2023-04-23T02:38:07;101279.06;;;11.99;100.00
2401;BME280;1211;43.200;27.914;2023-04-23T02:40:34;101276.16;;;12.21;100.00
2401;BME280;1211;43.200;27.914;2023-04-23T02:43:00;101281.34;;;11.97;100.00
2401;BME280;1211;43.200;27.914;2023-04-23T02:45:27;101277.44;;;12.15;100.00
2401;BME280;1211;43.200;27.914;2023-04-23T02:47:55;101278.09;;;12.12;100.00
2401;BME280;1211;43.200;27.914;2023-04-23T02:50:22;101276.13;;;11.87;100.00
2401;BME280;1211;43.200;27.914;2023-04-23T02:52:49;101279.41;;;12.06;100.00
2401;BME280;1211;43.200;27.914;2023-04-23T02:55:16;101278.91;;;12.04;100.00
2401;BME280;1211;43.200;27.914;2023-04-23T02:57:42;101272.28;;;12.14;100.00
2401;BME280;1211;43.200;27.914;2023-04-23T03:00:10;101275.66;;;12.02;100.00
2401;BME280;1211;43.200;27.914;2023-04-23T03:02:38;101273.38;;;12.04;100.00
2401;BME280;1211;43.200;27.914;2023-04-23T03:05:07;101282.81;;;11.94;100.00
2401;BME280;1211;43.200;27.914;2023-04-23T03:07:34;101271.09;;;11.89;100.00
2401;BME280;1211;43.200;27.914;2023-04-23T03:10:01;101281.34;;;11.97;100.00
2401;BME280;1211;43.200;27.914;2023-04-23T03:12:27;101279.25;;;12.03;100.00
2401;BME280;1211;43.200;27.914;2023-04-23T03:14:54;101285.06;;;11.84;100.00
2401;BME280;1211;43.200;27.914;2023-04-23T03:17:20;101277.69;;;11.71;100.00
2401;BME280;1211;43.200;27.914;2023-04-23T03:19:47;101275.50;;;11.90;100.00
2401;BME280;1211;43.200;27.914;2023-04-23T03:22:15;101279.06;;;11.99;100.00
2401;BME280;1211;43.200;27.914;2023-04-23T03:24:42;101287.03;;;11.92;100.00
2401;BME280;1211;43.200;27.914;2023-04-23T03:27:08;101290.25;;;11.94;100.00
2401;BME280;1211;43.200;27.914;2023-04-23T03:29:35;101280.22;;;12.07;100.00
2401;BME280;1211;43.200;27.914;2023-04-23T03:32:02;101282.16;;;12.06;100.00
2401;BME280;1211;43.200;27.914;2023-04-23T03:34:29;101284.59;;;11.99;100.00
2401;BME280;1211;43.200;27.914;2023-04-23T03:36:55;101287.84;;;12.01;100.00
2401;BME280;1211;43.200;27.914;2023-04-23T03:39:23;101294.03;;;12.07;100.00
2401;BME280;1211;43.200;27.914;2023-04-23T03:41:50;101291.91;;;11.95;100.00
2401;BME280;1211;43.200;27.914;2023-04-23T03:44:17;101289.78;;;12.01;100.00
2401;BME280;1211;43.200;27.914;2023-04-23T03:46:43;101293.88;;;12.03;100.00
2401;BME280;1211;43.200;27.914;2023-04-23T03:49:10;101293.72;;;12.25;100.00
2401;BME280;1211;43.200;27.914;2023-04-23T03:51:37;101292.22;;;11.93;100.00
2401;BME280;1211;43.200;27.914;2023-04-23T03:54:03;101295.16;;;11.97;100.00
2401;BME280;1211;43.200;27.914;2023-04-23T03:56:31;101300.34;;;12.16;100.00
2401;BME280;1211;43.200;27.914;2023-04-23T03:58:58;101300.53;;;12.36;100.00
2401;BME280;1211;43.200;27.914;2023-04-23T04:01:25;101301.16;;;12.33;100.00
2401;BME280;1211;43.200;27.914;2023-04-23T04:03:51;101306.03;;;12.62;100.00
2401;BME280;1211;43.200;27.914;2023-04-23T04:06:18;101311.06;;;12.77;100.00
2401;BME280;1211;43.200;27.914;2023-04-23T04:08:45;101319.94;;;13.00;100.00
2401;BME280;1211;43.200;27.914;2023-04-23T04:11:11;101322.72;;;13.00;100.00
2401;BME280;1211;43.200;27.914;2023-04-23T04:13:40;101332.59;;;13.10;100.00
2401;BME280;1211;43.200;27.914;2023-04-23T04:16:06;101326.25;;;13.09;100.00
2401;BME280;1211;43.200;27.914;2023-04-23T04:18:33;101329.34;;;13.16;100.00
2401;BME280;1211;43.200;27.914;2023-04-23T04:21:00;101334.38;;;13.23;100.00
2401;BME280;1211;43.200;27.914;2023-04-23T04:23:27;101333.59;;;13.05;100.00
2401;BME280;1211;43.200;27.914;2023-04-23T04:25:53;101330.66;;;13.10;100.00
2401;BME280;1211;43.200;27.914;2023-04-23T04:28:21;101330.34;;;13.03;100.00
2401;BME280;1211;43.200;27.914;2023-04-23T04:30:50;101330.97;;;13.64;100.00
2401;BME280;1211;43.200;27.914;2023-04-23T04:33:18;101330.19;;;13.55;100.00
2401;BME280;1211;43.200;27.914;2023-04-23T04:35:45;101336.97;;;13.95;100.00
2401;BME280;1211;43.200;27.914;2023-04-23T04:38:13;101335.06;;;13.87;100.00
2401;BME280;1211;43.200;27.914;2023-04-23T04:40:40;101327.38;;;14.14;100.00
2401;BME280;1211;43.200;27.914;2023-04-23T04:43:06;101334.63;;;14.27;100.00
2401;BME280;1211;43.200;27.914;2023-04-23T04:45:34;101332.91;;;14.43;100.00
2401;BME280;1211;43.200;27.914;2023-04-23T04:48:02;101339.66;;;14.87;100.00
2401;BME280;1211;43.200;27.914;2023-04-23T04:50:29;101340.22;;;15.13;100.00
2401;BME280;1211;43.200;27.914;2023-04-23T04:52:55;101342.59;;;15.48;100.00
2401;BME280;1211;43.200;27.914;2023-04-23T04:55:22;101343.66;;;15.92;100.00
2401;BME280;1211;43.200;27.914;2023-04-23T04:57:49;101348.38;;;16.16;100.00
2401;BME280;1211;43.200;27.914;2023-04-23T05:00:19;101356.00;;;16.59;100.00
2401;BME280;1211;43.200;27.914;2023-04-23T05:02:47;101351.47;;;16.94;100.00
2401;BME280;1211;43.200;27.914;2023-04-23T05:05:15;101354.81;;;16.72;100.00
2401;BME280;1211;43.200;27.914;2023-04-23T05:07:42;101352.56;;;16.49;100.00
2401;BME280;1211;43.200;27.914;2023-04-23T05:10:09;101357.50;;;16.16;100.00
2401;BME280;1211;43.200;27.914;2023-04-23T05:12:36;101349.44;;;15.75;100.00
2401;BME280;1211;43.200;27.914;2023-04-23T05:15:06;101344.44;;;16.17;100.00
2401;BME280;1211;43.200;27.914;2023-04-23T05:17:32;101346.63;;;16.91;100.00
2401;BME280;1211;43.200;27.914;2023-04-23T05:19:59;101344.75;;;16.27;100.00
2401;BME280;1211;43.200;27.914;2023-04-23T05:22:27;101353.94;;;16.68;100.00
2401;BME280;1211;43.200;27.914;2023-04-23T05:24:54;101355.06;;;16.95;100.00
2401;BME280;1211;43.200;27.914;2023-04-23T05:27:21;101356.00;;;16.59;100.00
2401;BME280;1211;43.200;27.914;2023-04-23T05:29:48;101354.53;;;16.49;100.00
2401;BME280;1211;43.200;27.914;2023-04-23T05:32:14;101355.56;;;17.12;100.00
2401;BME280;1211;43.200;27.914;2023-04-23T05:34:41;101359.78;;;17.06;100.00
2401;BME280;1211;43.200;27.914;2023-04-23T05:37:07;101357.94;;;17.42;99.17
2401;BME280;1211;43.200;27.914;2023-04-23T05:39:36;101356.09;;;16.74;99.83
2401;BME280;1211;43.200;27.914;2023-04-23T05:42:03;101365.94;;;17.27;100.00
2401;BME280;1211;43.200;27.914;2023-04-23T05:44:30;101357.34;;;17.64;95.69
2401;BME280;1211;43.200;27.914;2023-04-23T05:46:56;101357.31;;;18.49;90.93
2401;BME280;1211;43.200;27.914;2023-04-23T05:49:23;101357.44;;;18.72;88.46
2401;BME280;1211;43.200;27.914;2023-04-23T05:51:51;101361.06;;;19.80;83.53
2401;BME280;1211;43.200;27.914;2023-04-23T05:54:18;101352.88;;;20.20;79.44
2401;BME280;1211;43.200;27.914;2023-04-23T05:56:46;101358.06;;;19.92;79.02
2401;BME280;1211;43.200;27.914;2023-04-23T05:59:12;101358.31;;;20.09;78.73
2401;BME280;1211;43.200;27.914;2023-04-23T06:01:39;101353.09;;;20.34;76.90
2401;BME280;1211;43.200;27.914;2023-04-23T06:04:06;101351.41;;;20.89;73.18
2401;BME280;1211;43.200;27.914;2023-04-23T06:06:33;101369.44;;;20.06;74.38
2401;BME280;1211;43.200;27.914;2023-04-23T06:08:59;101352.56;;;20.25;77.28
2401;BME280;1211;43.200;27.914;2023-04-23T06:11:26;101360.22;;;21.65;72.37
2401;BME280;1211;43.200;27.914;2023-04-23T06:13:54;101371.06;;;22.22;68.29
2401;BME280;1211;43.200;27.914;2023-04-23T06:16:21;101364.53;;;22.72;64.61
2401;BME280;1211;43.200;27.914;2023-04-23T06:18:48;101365.81;;;22.92;63.19
2401;BME280;1211;43.200;27.914;2023-04-23T06:21:14;101374.91;;;21.96;63.76
2401;BME280;1211;43.200;27.914;2023-04-23T06:23:41;101363.84;;;22.17;65.15
2401;BME280;1211;43.200;27.914;2023-04-23T06:26:08;101366.69;;;22.28;63.15
2401;BME280;1211;43.200;27.914;2023-04-23T06:28:34;101366.97;;;22.77;62.75
2401;BME280;1211;43.200;27.914;2023-04-23T06:31:02;101371.03;;;22.94;61.34
2401;BME280;1211;43.200;27.914;2023-04-23T06:33:29;101364.53;;;22.72;61.30
2401;BME280;1211;43.200;27.914;2023-04-23T06:35:56;101357.13;;;23.97;59.49
2401;BME280;1211;43.200;27.914;2023-04-23T06:38:23;101368.88;;;25.07;56.58
2401;BME280;1211;43.200;27.914;2023-04-23T06:40:49;101365.66;;;25.09;55.43
2401;BME280;1211;43.200;27.914;2023-04-23T06:43:16;101371.03;;;25.48;54.09
2401;BME280;1211;43.200;27.914;2023-04-23T06:45:42;101377.84;;;24.81;53.77
2401;BME280;1211;43.200;27.914;2023-04-23T06:48:11;101369.84;;;24.69;54.18
2401;BME280;1211;43.200;27.914;2023-04-23T06:50:37;101378.22;;;24.83;52.51
2401;BME280;1211;43.200;27.914;2023-04-23T06:53:04;101369.84;;;24.69;54.88
2401;BME280;1211;43.200;27.914;2023-04-23T06:55:31;101374.75;;;25.89;52.65
2401;BME280;1211;43.200;27.914;2023-04-23T06:57:58;101382.25;;;25.62;53.15
2401;BME280;1211;43.200;27.914;2023-04-23T07:00:25;101380.38;;;25.93;51.62
2401;BME280;1211;43.200;27.914;2023-04-23T07:02:51;101389.84;;;26.91;48.77
2401;BME280;1211;43.200;27.914;2023-04-23T07:05:19;101389.06;;;26.87;48.35
2401;BME280;1211;43.200;27.914;2023-04-23T07:07:46;101391.41;;;25.76;49.68
2401;BME280;1211;43.200;27.914;2023-04-23T07:10:13;101381.19;;;24.47;51.91
2401;BME280;1211;43.200;27.914;2023-04-23T07:12:39;101390.47;;;24.41;52.26
2401;BME280;1211;43.200;27.914;2023-04-23T07:15:06;101384.06;;;24.05;54.02
2401;BME280;1211;43.200;27.914;2023-04-23T07:17:33;101385.91;;;24.72;52.26
2401;BME280;1211;43.200;27.914;2023-04-23T07:20:00;101392.19;;;26.96;49.08
2401;BME280;1211;43.200;27.914;2023-04-23T07:22:31;101386.13;;;28.48;45.09
2401;BME280;1211;43.200;27.914;2023-04-23T07:24:58;101386.88;;;28.06;44.64
2401;BME280;1211;43.200;27.914;2023-04-23T07:27:25;101402.44;;;29.39;43.33
2401;BME280;1211;43.200;27.914;2023-04-23T07:29:51;101385.94;;;29.51;42.44
2401;BME280;1211;43.200;27.914;2023-04-23T07:32:18;101395.31;;;28.09;41.94
2401;BME280;1211;43.200;27.914;2023-04-23T07:34:47;101393.69;;;26.37;44.14
2401;BME280;1211;43.200;27.914;2023-04-23T07:37:14;101389.72;;;26.31;45.37
2401;BME280;1211;43.200;27.914;2023-04-23T07:39:42;101395.75;;;27.84;42.63
2401;BME280;1211;43.200;27.914;2023-04-23T07:42:08;101392.31;;;28.83;39.97
2401;BME280;1211;43.200;27.914;2023-04-23T07:44:35;101382.03;;;29.08;38.74
2401;BME280;1211;43.200;27.914;2023-04-23T07:47:02;101400.59;;;28.93;38.06
2401;BME280;1211;43.200;27.914;2023-04-23T07:49:28;101403.38;;;28.11;38.71
2401;BME280;1211;43.200;27.914;2023-04-23T07:51:55;101383.31;;;28.02;40.46
2401;BME280;1211;43.200;27.914;2023-04-23T07:54:22;101383.44;;;28.61;38.93
2401;BME280;1211;43.200;27.914;2023-04-23T07:56:50;101395.84;;;27.77;39.84
2401;BME280;1211;43.200;27.914;2023-04-23T07:59:16;101392.09;;;27.03;42.42
2401;BME280;1211;43.200;27.914;2023-04-23T08:01:43;101386.72;;;26.79;47.92
2401;BME280;1211;43.200;27.914;2023-04-23T08:04:10;101382.41;;;26.33;50.15
2401;BME280;1211;43.200;27.914;2023-04-23T08:06:37;101380.97;;;27.20;47.81
2401;BME280;1211;43.200;27.914;2023-04-23T08:09:03;101390.34;;;26.83;44.43
2401;BME280;1211;43.200;27.914;2023-04-23T08:11:31;101383.59;;;27.34;43.73
2401;BME280;1211;43.200;27.914;2023-04-23T08:13:59;101377.41;;;27.69;42.15
2401;BME280;1211;43.200;27.914;2023-04-23T08:16:25;101381.31;;;27.52;42.26
2401;BME280;1211;43.200;27.914;2023-04-23T08:18:52;101381.44;;;27.41;42.79
2401;BME280;1211;43.200;27.914;2023-04-23T08:21:19;101386.22;;;27.75;41.86
2401;BME280;1211;43.200;27.914;2023-04-23T08:23:46;101383.94;;;27.90;41.81
2401;BME280;1211;43.200;27.914;2023-04-23T08:26:13;101386.22;;;27.98;41.24
2401;BME280;1211;43.200;27.914;2023-04-23T08:28:39;101377.03;;;27.67;42.85
2401;BME280;1211;43.200;27.914;2023-04-23T08:31:07;101371.13;;;27.58;43.02
2401;BME280;1211;43.200;27.914;2023-04-23T08:33:34;101376.38;;;27.29;44.78
2401;BME280;1211;43.200;27.914;2023-04-23T08:36:01;101371.88;;;27.05;43.62
2401;BME280;1211;43.200;27.914;2023-04-23T08:38:27;101375.97;;;26.66;45.16
2401;BME280;1211;43.200;27.914;2023-04-23T08:40:55;101376.88;;;26.94;46.63
2401;BME280;1211;43.200;27.914;2023-04-23T08:43:24;101364.38;;;27.22;47.10
2401;BME280;1211;43.200;27.914;2023-04-23T08:45:52;101368.75;;;27.53;42.48
2401;BME280;1211;43.200;27.914;2023-04-23T08:48:20;101365.50;;;26.97;45.70
2401;BME280;1211;43.200;27.914;2023-04-23T08:50:47;101357.44;;;27.53;47.41
2401;BME280;1211;43.200;27.914;2023-04-23T08:53:16;101361.63;;;28.78;44.41
2401;BME280;1211;43.200;27.914;2023-04-23T08:55:43;101358.31;;;28.40;40.03
2401;BME280;1211;43.200;27.914;2023-04-23T08:58:10;101357.81;;;28.25;42.50
2401;BME280;1211;43.200;27.914;2023-04-23T09:00:37;101363.81;;;28.90;41.98
2401;BME280;1211;43.200;27.914;2023-04-23T09:03:04;101357.72;;;29.43;44.29
2401;BME280;1211;43.200;27.914;2023-04-23T09:05:32;101359.72;;;30.24;42.99
2401;BME280;1211;43.200;27.914;2023-04-23T09:07:59;101353.75;;;30.06;44.42
2401;BME280;1211;43.200;27.914;2023-04-23T09:10:27;101363.34;;;29.27;45.74
2401;BME280;1211;43.200;27.914;2023-04-23T09:12:54;101369.63;;;28.43;47.77
2401;BME280;1211;43.200;27.914;2023-04-23T09:15:20;101366.19;;;28.72;46.09
2401;BME280;1211;43.200;27.914;2023-04-23T09:17:47;101362.44;;;29.99;42.52
2401;BME280;1211;43.200;27.914;2023-04-23T09:20:15;101361.28;;;29.80;43.06
2401;BME280;1211;43.200;27.914;2023-04-23T09:22:43;101364.22;;;30.38;41.17
2401;BME280;1211;43.200;27.914;2023-04-23T09:25:11;101364.31;;;30.50;39.09
2401;BME280;1211;43.200;27.914;2023-04-23T09:27:38;101374.59;;;31.15;37.37
2401;BME280;1211;43.200;27.914;2023-04-23T09:30:05;101370.00;;;30.50;37.32
2401;BME280;1211;43.200;27.914;2023-04-23T09:32:34;101368.41;;;30.04;37.71
2401;BME280;1211;43.200;27.914;2023-04-23T09:35:01;101370.28;;;28.90;37.52
2401;BME280;1211;43.200;27.914;2023-04-23T09:37:28;101375.72;;;27.95;38.50
2401;BME280;1211;43.200;27.914;2023-04-23T09:39:58;101366.63;;;28.70;38.38
2401;BME280;1211;43.200;27.914;2023-04-23T09:42:26;101370.19;;;28.54;38.67
2401;BME280;1211;43.200;27.914;2023-04-23T09:44:54;101362.06;;;28.96;38.65
2401;BME280;1211;43.200;27.914;2023-04-23T09:47:21;101368.03;;;28.82;37.66
2401;BME280;1211;43.200;27.914;2023-04-23T09:49:48;101364.94;;;28.53;37.60
2401;BME280;1211;43.200;27.914;2023-04-23T09:52:15;101363.41;;;27.82;38.29
2401;BME280;1211;43.200;27.914;2023-04-23T09:54:42;101369.75;;;26.82;40.49
2401;BME280;1211;43.200;27.914;2023-04-23T09:57:11;101368.06;;;26.85;41.80
2401;BME280;1211;43.200;27.914;2023-04-23T09:59:38;101361.84;;;27.00;40.86
2401;BME280;1211;43.200;27.914;2023-04-23T10:02:06;101354.75;;;26.85;39.75
2401;BME280;1211;43.200;27.914;2023-04-23T10:04:33;101346.91;;;27.27;40.59
2401;BME280;1211;43.200;27.914;2023-04-23T10:07:01;101348.72;;;28.34;38.87
2401;BME280;1211;43.200;27.914;2023-04-23T10:09:28;101345.47;;;28.35;38.48
2401;BME280;1211;43.200;27.914;2023-04-23T10:11:56;101347.94;;;28.33;37.92
2401;BME280;1211;43.200;27.914;2023-04-23T10:14:25;101353.47;;;27.74;38.43
2401;BME280;1211;43.200;27.914;2023-04-23T10:16:52;101345.53;;;28.71;39.01
2401;BME280;1211;43.200;27.914;2023-04-23T10:19:20;101346.31;;;29.11;37.54
2401;BME280;1211;43.200;27.914;2023-04-23T10:21:48;101335.69;;;27.20;39.23
2401;BME280;1211;43.200;27.914;2023-04-23T10:24:15;101339.78;;;25.21;42.09
2401;BME280;1211;43.200;27.914;2023-04-23T10:26:44;101337.75;;;24.38;43.12
2401;BME280;1211;43.200;27.914;2023-04-23T10:29:12;101335.78;;;24.03;45.36
2401;BME280;1211;43.200;27.914;2023-04-23T10:31:40;101342.25;;;23.50;48.49
2401;BME280;1211;43.200;27.914;2023-04-23T10:34:08;101331.78;;;23.40;49.98
2401;BME280;1211;43.200;27.914;2023-04-23T10:36:35;101330.84;;;22.72;50.74
2401;BME280;1211;43.200;27.914;2023-04-23T10:39:02;101332.38;;;21.94;56.31
2401;BME280;1211;43.200;27.914;2023-04-23T10:41:33;101326.34;;;21.88;59.64
2401;BME280;1211;43.200;27.914;2023-04-23T10:44:01;101325.38;;;22.25;55.58
2401;BME280;1211;43.200;27.914;2023-04-23T10:46:28;101321.22;;;22.73;53.25
2401;BME280;1211;43.200;27.914;2023-04-23T10:49:06;101322.06;;;22.84;51.50
2401;BME280;1211;43.200;27.914;2023-04-23T10:51:32;101316.28;;;22.52;51.81
2401;BME280;1211;43.200;27.914;2023-04-23T10:54:01;101311.75;;;22.27;52.01
2401;BME280;1211;43.200;27.914;2023-04-23T10:56:27;101311.03;;;22.44;51.61
2401;BME280;1211;43.200;27.914;2023-04-23T10:58:54;101319.47;;;21.82;53.54
2401;BME280;1211;43.200;27.914;2023-04-23T11:01:23;101318.94;;;22.21;53.37
2401;BME280;1211;43.200;27.914;2023-04-23T11:03:50;101317.41;;;22.34;52.64
2401;BME280;1211;43.200;27.914;2023-04-23T11:09:06;101317.59;;;22.76;51.58
2401;BME280;1211;43.200;27.914;2023-04-23T11:11:49;101307.28;;;23.33;51.07
2401;BME280;1211;43.200;27.914;2023-04-23T11:14:16;101319.50;;;22.51;52.17
2401;BME280;1211;43.200;27.914;2023-04-23T11:16:42;101310.22;;;22.40;52.32
2401;BME280;1211;43.200;27.914;2023-04-23T11:19:09;101304.03;;;23.17;50.55
2401;BME280;1211;43.200;27.914;2023-04-23T11:21:56;101306.47;;;23.36;49.75
2401;BME280;1211;43.200;27.914;2023-04-23T11:24:23;101308.09;;;23.69;49.50
2401;BME280;1211;43.200;27.914;2023-04-23T11:26:50;101300.06;;;23.43;49.16
2401;BME280;1211;43.200;27.914;2023-04-23T11:29:19;101308.91;;;23.52;49.90
2401;BME280;1211;43.200;27.914;2023-04-23T11:31:46;101308.81;;;22.88;49.46
2401;BME280;1211;43.200;27.914;2023-04-23T11:34:13;101312.84;;;22.94;50.41
2401;BME280;1211;43.200;27.914;2023-04-23T11:36:40;101317.66;;;22.90;51.04
2401;BME280;1211;43.200;27.914;2023-04-23T11:39:08;101312.06;;;23.05;50.74
2401;BME280;1211;43.200;27.914;2023-04-23T11:41:36;101317.66;;;22.90;49.88
2401;BME280;1211;43.200;27.914;2023-04-23T11:44:03;101318.53;;;22.18;50.64
2401;BME280;1211;43.200;27.914;2023-04-23T11:46:30;101324.34;;;21.92;51.05
2401;BME280;1211;43.200;27.914;2023-04-23T11:48:58;101316.50;;;22.15;50.44
2401;BME280;1211;43.200;27.914;2023-04-23T11:51:25;101313.47;;;21.84;51.75
2401;BME280;1211;43.200;27.914;2023-04-23T11:53:52;101318.34;;;21.94;50.86
2401;BME280;1211;43.200;27.914;2023-04-23T11:56:20;101301.25;;;22.13;50.74
2401;BME280;1211;43.200;27.914;2023-04-23T11:58:57;101309.38;;;22.32;51.06
2401;BME280;1211;43.200;27.914;2023-04-23T12:01:23;101302.66;;;22.58;51.78
2401;BME280;1211;43.200;27.914;2023-04-23T12:03:50;101297.19;;;22.03;53.73
2401;BME280;1211;43.200;27.914;2023-04-23T12:06:16;101301.25;;;22.13;57.15
2401;BME280;1211;43.200;27.914;2023-04-23T12:08:45;101312.75;;;21.94;58.24
2401;BME280;1211;43.200;27.914;2023-04-23T12:11:12;101301.59;;;21.50;64.33
2401;BME280;1211;43.200;27.914;2023-04-23T12:13:40;101294.22;;;22.51;62.01
2401;BME280;1211;43.200;27.914;2023-04-23T12:16:07;101286.25;;;22.71;59.70
2401;BME280;1211;43.200;27.914;2023-04-23T12:18:34;101287.56;;;23.16;56.44
2401;BME280;1211;43.200;27.914;2023-04-23T12:21:06;101285.38;;;22.49;52.78
2401;BME280;1211;43.200;27.914;2023-04-23T12:23:33;101278.19;;;22.51;53.61
2401;BME280;1211;43.200;27.914;2023-04-23T12:26:00;101293.38;;;21.78;55.41
2401;BME280;1211;43.200;27.914;2023-04-23T12:28:28;101284.66;;;21.35;58.45
2401;BME280;1211;43.200;27.914;2023-04-23T12:30:59;101279.25;;;21.60;59.16
2401;BME280;1211;43.200;27.914;2023-04-23T12:33:27;101272.72;;;20.65;59.41
2401;BME280;1211;43.200;27.914;2023-04-23T12:35:54;101261.06;;;20.96;59.93
2401;BME280;1211;43.200;27.914;2023-04-23T12:38:21;101261.06;;;20.96;59.80
2401;BME280;1211;43.200;27.914;2023-04-23T12:40:48;101255.03;;;20.94;56.46
2401;BME280;1211;43.200;27.914;2023-04-23T12:43:15;101262.66;;;20.97;56.53
2401;BME280;1211;43.200;27.914;2023-04-23T12:45:42;101263.38;;;21.31;55.86
2401;BME280;1211;43.200;27.914;2023-04-23T12:48:10;101262.34;;;21.50;54.18
2401;BME280;1211;43.200;27.914;2023-04-23T12:50:37;101266.44;;;21.63;52.42
2401;BME280;1211;43.200;27.914;2023-04-23T12:53:04;101269.69;;;21.65;50.35
2401;BME280;1211;43.200;27.914;2023-04-23T12:55:31;101260.34;;;22.08;49.06
2401;BME280;1211;43.200;27.914;2023-04-23T12:57:57;101261.91;;;21.99;49.65